Time;durP1;ratioP1;P1;durP2;ratioP2;P2;SDS_P1;SDS_P2;PMS_P1;PMS_P2;Temp;Humidity;BMP_temperature;BMP_pressure;BME280_temperature;BME280_humidity;BME280_pressure;Samples;Min_cycle;Max_cycle;Signal;HPM_P1;HPM_P2
2023/04/14 00:01:15;;;;;;;16.58;4.13;;;6.50;99.90;;;-144.05;54.53;56950.78;5094044;28;20061;-75
2023/04/14 00:03:42;;;;;;;11.88;3.63;;;6.40;99.90;;;-144.05;54.30;56938.03;5094915;28;20479;-78
2023/04/14 00:06:08;;;;;;;8.85;3.42;;;6.50;99.90;;;-144.05;54.34;56923.19;5096538;28;20043;-78
2023/04/14 00:08:34;;;;;;;12.82;3.28;;;6.40;99.90;;;-144.05;54.20;56916.81;5095830;28;20032;-77
2023/04/14 00:11:01;;;;;;;12.70;4.10;;;6.40;99.90;;;-144.05;54.51;56923.19;5078114;28;20027;-77
2023/04/14 00:13:26;;;;;;;8.60;3.35;;;6.30;99.90;;;-144.05;54.82;56933.78;5094571;28;20076;-77
2023/04/14 00:15:54;;;;;;;8.93;3.63;;;6.20;99.90;;;-144.05;54.94;56916.81;5094351;28;20122;-78
2023/04/14 00:18:20;;;;;;;9.85;3.40;;;6.10;99.90;;;-144.05;55.65;56944.41;5094204;28;20060;-77
2023/04/14 00:20:47;;;;;;;5.80;2.83;;;5.90;99.90;;;-144.05;56.16;56929.53;5094373;28;20139;-77
2023/04/14 00:23:12;;;;;;;8.75;2.70;;;5.70;99.90;;;-144.05;56.87;56959.28;5094466;28;20075;-76
2023/04/14 00:25:39;;;;;;;8.10;3.03;;;5.70;99.90;;;-144.05;57.76;56933.78;5077609;28;20224;-78
2023/04/14 00:28:04;;;;;;;8.15;2.70;;;5.60;99.90;;;-144.05;57.63;56959.28;5094525;28;20536;-77
2023/04/14 00:30:30;;;;;;;6.47;2.83;;;5.50;99.90;;;-144.05;58.02;56955.03;5095139;28;20036;-76
2023/04/14 00:32:56;;;;;;;13.80;2.80;;;5.50;99.90;;;-144.05;58.26;56965.66;5095881;28;20020;-78
2023/04/14 00:35:23;;;;;;;9.65;2.78;;;5.40;99.90;;;-144.05;58.68;56948.66;5095599;28;20498;-78
2023/04/14 00:37:50;;;;;;;11.20;3.40;;;5.40;99.90;;;-144.05;59.16;56929.53;5077809;28;20032;-78
2023/04/14 00:40:16;;;;;;;13.48;3.60;;;5.40;99.90;;;-144.05;59.46;56912.56;5094131;28;20055;-78
2023/04/14 00:42:46;;;;;;;11.07;2.95;;;5.50;99.90;;;-144.05;59.81;56948.66;5076281;28;20020;-77
2023/04/14 00:45:14;;;;;;;8.88;2.88;;;5.40;99.90;;;-144.05;59.96;56938.03;5094423;28;20050;-78
2023/04/14 00:47:49;;;;;;;10.90;3.58;;;5.50;99.90;;;-144.05;60.26;56916.81;5076279;28;20036;-77
2023/04/14 00:50:18;;;;;;;10.70;3.63;;;5.60;99.90;;;-144.05;59.73;56938.03;5094773;28;20031;-77
2023/04/14 00:52:48;;;;;;;10.45;3.60;;;5.70;99.90;;;-144.05;59.22;56933.78;5095701;28;20039;-79
2023/04/14 00:55:20;;;;;;;11.18;3.47;;;5.80;99.90;;;-144.05;59.18;56933.78;5096384;28;20028;-79
2023/04/14 00:57:46;;;;;;;9.57;3.92;;;5.80;99.90;;;-144.05;58.94;56914.69;5095904;28;20028;-78
2023/04/14 01:00:13;;;;;;;10.90;3.08;;;5.90;99.90;;;-144.05;58.86;56944.41;5095670;28;20052;-78
2023/04/14 01:02:38;;;;;;;10.38;2.78;;;5.90;99.90;;;-144.05;58.49;56940.16;5096192;28;20204;-77
2023/04/14 01:05:05;;;;;;;11.45;2.47;;;5.90;99.90;;;-144.05;58.39;56938.03;5096894;28;20024;-78
2023/04/14 01:07:31;;;;;;;10.80;2.92;;;5.90;99.90;;;-144.05;57.95;56931.66;5095988;28;20093;-78
2023/04/14 01:09:59;;;;;;;6.85;2.90;;;5.90;99.90;;;-144.05;57.82;56957.16;5086334;28;20024;-79
2023/04/14 01:12:53;;;;;;;8.82;2.60;;;5.80;99.90;;;-144.05;57.59;56931.66;5101548;28;20040;-77
2023/04/14 01:15:49;;;;;;;8.07;3.22;;;5.60;99.90;;;-144.05;58.58;56955.03;5083206;28;20031;-77
2023/04/14 01:18:44;;;;;;;7.43;2.50;;;5.40;99.90;;;-144.05;59.43;56946.53;5100660;28;20055;-78
2023/04/14 01:21:22;;;;;;;11.02;2.53;;;5.10;99.90;;;-144.05;59.99;56959.28;5100041;28;20062;-76
2023/04/14 01:24:31;;;;;;;9.73;2.33;;;5.10;99.90;;;-144.05;60.69;56948.66;5100690;28;20035;-77
2023/04/14 01:27:53;;;;;;;12.35;2.53;;;5.00;99.90;;;-144.05;60.33;56923.19;5085241;28;20040;-78
2023/04/14 01:31:00;;;;;;;8.27;2.25;;;5.10;99.90;;;-144.05;59.85;56942.28;5094737;28;20059;-79
2023/04/14 01:33:33;;;;;;;;;;;5.20;99.90;;;-144.05;59.57;56950.78;5072797;28;20047;-79
2023/04/14 01:36:11;;;;;;;7.47;2.15;;;5.20;99.90;;;-144.05;59.31;56942.28;5099903;28;20359;-79
2023/04/14 01:38:42;;;;;;;10.15;2.40;;;5.10;99.90;;;-144.05;59.59;56910.44;5099008;28;20099;-78
2023/04/14 01:41:15;;;;;;;7.70;2.67;;;5.00;99.90;;;-144.05;59.52;56946.53;5099132;28;20065;-78
2023/04/14 01:43:48;;;;;;;8.93;2.78;;;4.80;99.90;;;-144.05;60.32;56965.66;5081337;28;20049;-79
2023/04/14 01:46:18;;;;;;;8.65;2.17;;;4.60;99.90;;;-144.05;61.18;56952.91;5099991;28;20392;-77
2023/04/14 01:48:46;;;;;;;5.65;2.35;;;4.40;99.90;;;-144.05;62.09;56959.28;5098196;28;20156;-77
2023/04/14 01:51:18;;;;;;;7.53;2.55;;;4.40;99.90;;;-144.05;62.64;56963.53;5099662;28;20040;-79
2023/04/14 01:53:48;;;;;;;5.93;2.40;;;4.40;99.90;;;-144.05;62.75;56976.28;5099297;28;20031;-79
2023/04/14 01:56:18;;;;;;;6.95;2.47;;;4.50;99.90;;;-144.05;63.03;56959.28;5097951;28;20197;-78
2023/04/14 01:58:48;;;;;;;10.10;2.97;;;4.70;99.90;;;-144.05;62.42;56940.16;5097567;28;20024;-77
2023/04/14 02:01:16;;;;;;;9.05;2.35;;;4.80;99.90;;;-144.05;62.03;56944.41;5097755;28;20042;-78
2023/04/14 02:03:44;;;;;;;17.13;2.88;;;4.90;99.90;;;-144.05;61.77;56959.28;5097821;28;20126;-78
2023/04/14 02:06:13;;;;;;;6.35;2.40;;;5.00;99.90;;;-144.05;61.60;56967.78;5099298;28;20210;-78
2023/04/14 02:08:42;;;;;;;5.97;2.53;;;5.00;99.90;;;-144.05;61.65;56957.16;5099200;28;20040;-78
2023/04/14 02:11:13;;;;;;;16.23;4.38;;;5.00;99.90;;;-144.05;61.88;56946.53;5099762;28;20024;-78
2023/04/14 02:13:43;;;;;;;13.85;3.35;;;5.00;99.90;;;-144.05;61.47;56952.91;5099841;28;20032;-78
2023/04/14 02:16:11;;;;;;;13.82;2.70;;;5.00;99.90;;;-144.05;61.60;56946.53;5099532;28;20168;-79
2023/04/14 02:18:39;;;;;;;6.22;2.42;;;5.00;99.90;;;-144.05;61.45;56933.78;5097690;28;20476;-78
2023/04/14 02:21:08;;;;;;;8.15;2.30;;;5.00;99.90;;;-144.05;61.48;56933.78;5097754;28;20035;-78
2023/04/14 02:23:34;;;;;;;8.68;2.65;;;5.00;99.90;;;-144.05;61.64;56933.78;5098487;28;20039;-78
2023/04/14 02:26:11;;;;;;;8.77;2.38;;;5.00;99.90;;;-144.05;62.08;56933.78;5098497;28;20066;-78
2023/04/14 02:28:50;;;;;;;7.40;2.10;;;5.10;99.90;;;-144.05;61.85;56961.41;5097138;28;20472;-78
2023/04/14 02:31:25;;;;;;;5.07;2.10;;;5.10;99.90;;;-144.05;61.64;56942.28;5097472;28;20028;-78
2023/04/14 02:33:59;;;;;;;8.15;2.13;;;5.20;99.90;;;-144.05;61.42;56946.53;5098770;28;20073;-78
2023/04/14 02:36:38;;;;;;;3.20;1.95;;;5.30;99.90;;;-144.05;61.06;56942.28;5096777;28;20426;-78
2023/04/14 02:39:20;;;;;;;4.15;1.95;;;5.30;99.90;;;-144.05;61.06;56921.06;5098366;28;20538;-78
2023/04/14 02:42:00;;;;;;;13.32;2.40;;;5.30;99.90;;;-144.05;61.55;56925.28;5096778;28;20032;-76
2023/04/14 02:44:34;;;;;;;7.88;2.92;;;5.20;99.90;;;-144.05;61.10;56942.28;5098773;28;20361;-77
2023/04/14 02:47:10;;;;;;;9.52;2.22;;;5.20;99.90;;;-144.05;61.04;56933.78;5099224;28;20031;-78
2023/04/14 02:49:43;;;;;;;11.38;2.67;;;5.20;99.90;;;-144.05;61.18;56925.28;5098368;28;20024;-77
2023/04/14 02:52:15;;;;;;;11.70;3.08;;;5.10;99.90;;;-144.05;61.52;56952.91;5097012;28;20031;-78
2023/04/14 02:54:44;;;;;;;8.15;2.58;;;5.20;99.90;;;-144.05;61.31;56955.03;5098893;28;20042;-78
2023/04/14 02:57:12;;;;;;;9.30;2.35;;;5.20;99.90;;;-144.05;61.36;56929.53;5098411;28;20028;-77
2023/04/14 02:59:41;;;;;;;6.00;2.35;;;5.30;99.90;;;-144.05;60.74;56944.41;5097828;28;20029;-77
2023/04/14 03:02:11;;;;;;;9.30;2.60;;;5.30;99.90;;;-144.05;60.48;56931.66;5097907;28;20024;-78
2023/04/14 03:04:39;;;;;;;9.05;2.50;;;5.20;99.90;;;-144.05;60.85;56933.78;5098297;28;20487;-79
2023/04/14 03:07:11;;;;;;;5.20;2.33;;;5.20;99.90;;;-144.05;60.74;56952.91;5098366;28;20036;-78
2023/04/14 03:09:39;;;;;;;9.18;2.97;;;5.10;99.90;;;-144.05;60.56;56944.41;5079878;28;20032;-78
2023/04/14 03:12:06;;;;;;;7.50;2.38;;;5.00;99.90;;;-144.05;61.30;56957.16;5097818;28;20024;-78
2023/04/14 03:14:36;;;;;;;5.22;2.47;;;4.90;99.90;;;-144.05;61.70;56965.66;5098184;28;20039;-78
2023/04/14 03:17:04;;;;;;;5.55;2.00;;;4.80;99.90;;;-144.05;61.94;56938.03;5097408;28;20043;-76
2023/04/14 03:19:32;;;;;;;10.85;3.50;;;4.70;99.90;;;-144.05;62.85;56927.41;5096961;28;20463;-76
2023/04/14 03:22:00;;;;;;;5.93;2.30;;;4.70;99.90;;;-144.05;62.60;56944.41;5078036;28;20036;-77
2023/04/14 03:24:30;;;;;;;9.57;3.05;;;4.70;99.90;;;-144.05;62.84;56961.41;5096877;28;20035;-78
2023/04/14 03:27:16;;;;;;;10.52;3.22;;;4.70;99.90;;;-144.05;62.62;56946.53;5095435;28;20024;-78
2023/04/14 03:29:52;;;;;;;10.25;2.50;;;4.70;99.90;;;-144.05;62.85;56942.28;5097063;28;20035;-79
2023/04/14 03:32:23;;;;;;;5.13;2.42;;;4.60;99.90;;;-144.05;63.66;56948.66;5105586;28;20039;-77
2023/04/14 03:34:56;;;;;;;8.85;2.90;;;4.70;99.90;;;-144.05;63.65;56967.78;5096342;28;20039;-77
2023/04/14 03:37:26;;;;;;;10.25;2.17;;;4.70;99.90;;;-144.05;62.89;56942.28;5097600;28;20059;-79
2023/04/14 03:39:59;;;;;;;10.15;2.55;;;4.80;99.90;;;-144.05;62.69;56938.03;5098076;28;20056;-79
2023/04/14 03:42:28;;;;;;;8.10;2.30;;;4.80;99.90;;;-144.05;62.35;56948.66;5079996;28;20028;-79
2023/04/14 03:44:57;;;;;;;11.15;3.30;;;4.70;99.90;;;-144.05;62.25;56927.41;5097723;28;20103;-78
2023/04/14 03:47:25;;;;;;;10.75;2.50;;;4.70;99.90;;;-144.05;62.73;56948.66;5097440;28;20028;-78
2023/04/14 03:50:00;;;;;;;9.40;2.58;;;4.60;99.90;;;-144.05;62.57;56963.53;5096936;28;20051;-79
2023/04/14 03:52:34;;;;;;;7.20;2.60;;;4.60;99.90;;;-144.05;63.15;56952.91;5078559;28;20076;-77
2023/04/14 03:55:05;;;;;;;5.43;2.35;;;4.60;99.90;;;-144.05;63.09;56938.03;5078825;28;20020;-79
2023/04/14 03:57:33;;;;;;;9.45;2.58;;;4.60;99.90;;;-144.05;62.99;56957.16;5095012;28;20042;-79
2023/04/14 04:00:07;;;;;;;9.57;2.40;;;4.60;99.90;;;-144.05;63.17;56955.03;5095189;28;20063;-78
2023/04/14 04:02:35;;;;;;;12.00;2.47;;;4.60;99.90;;;-144.05;63.18;56929.53;5096550;28;20509;-78
2023/04/14 04:05:02;;;;;;;13.82;2.67;;;4.50;99.90;;;-144.05;63.19;56946.53;5097016;28;20080;-78
2023/04/14 04:07:31;;;;;;;12.05;2.45;;;4.50;99.90;;;-144.05;63.75;56969.91;5079277;28;20035;-77
2023/04/14 04:09:59;;;;;;;8.27;2.58;;;4.50;99.90;;;-144.05;64.07;56955.03;5078632;28;20028;-77
2023/04/14 04:12:26;;;;;;;8.98;2.33;;;4.50;99.90;;;-144.05;64.15;56955.03;5097049;28;20035;-78
2023/04/14 04:14:52;;;;;;;9.35;2.65;;;4.60;99.90;;;-144.05;63.50;56948.66;5097949;28;20031;-79
2023/04/14 04:17:23;;;;;;;8.80;2.20;;;4.70;99.90;;;-144.05;63.11;56972.03;5097911;28;20028;-78
2023/04/14 04:19:52;;;;;;;11.93;2.20;;;4.80;99.90;;;-144.05;62.69;56929.53;5078572;28;20115;-79
2023/04/14 04:22:25;;;;;;;8.45;2.47;;;4.90;99.90;;;-144.05;62.23;56938.03;5079689;28;20020;-79
2023/04/14 04:24:54;;;;;;;10.18;3.15;;;4.80;99.90;;;-144.05;62.01;56942.28;5095198;28;20028;-76
2023/04/14 04:27:21;;;;;;;6.50;2.47;;;4.70;99.90;;;-144.05;61.91;56946.53;5095938;28;20031;-78
2023/04/14 04:29:48;;;;;;;7.13;2.72;;;4.40;99.90;;;-144.05;62.20;56935.91;5096469;28;20031;-78
2023/04/14 04:32:14;;;;;;;7.63;2.80;;;4.30;99.90;;;-144.05;63.01;56961.41;5078000;28;20035;-77
2023/04/14 04:34:41;;;;;;;7.55;3.13;;;4.30;99.90;;;-144.05;63.25;56957.16;5095339;28;20028;-76
2023/04/14 04:37:09;;;;;;;9.50;2.95;;;4.30;99.90;;;-144.05;63.26;56944.41;5096629;28;20026;-78
2023/04/14 04:39:35;;;;;;;6.22;2.45;;;4.30;99.90;;;-144.05;63.43;56952.91;5097335;28;20043;-78
2023/04/14 04:42:07;;;;;;;9.23;2.95;;;4.30;99.90;;;-144.05;63.53;56955.03;5078406;28;20491;-76
2023/04/14 04:44:34;;;;;;;9.13;2.35;;;4.30;99.90;;;-144.05;63.39;56963.53;5077714;28;20054;-78
2023/04/14 04:47:01;;;;;;;10.18;3.03;;;4.30;99.90;;;-144.05;63.82;56935.91;5095827;28;20109;-76
2023/04/14 04:49:28;;;;;;;8.63;2.63;;;4.30;99.90;;;-144.05;63.83;56933.78;5095729;28;20030;-77
2023/04/14 04:51:55;;;;;;;9.40;3.20;;;4.40;99.90;;;-144.05;64.05;56935.91;5095115;28;20063;-77
2023/04/14 04:54:21;;;;;;;8.25;2.88;;;4.40;99.90;;;-144.05;63.94;56946.53;5097663;28;20035;-79
2023/04/14 04:56:47;;;;;;;8.23;2.80;;;4.50;99.90;;;-144.05;63.94;56938.03;5095825;28;20032;-78
2023/04/14 04:59:13;;;;;;;7.22;3.00;;;4.50;99.90;;;-144.05;64.25;56929.53;5094850;28;20028;-77
2023/04/14 05:01:39;;;;;;;13.40;3.55;;;4.60;99.90;;;-144.05;64.55;56938.03;5105556;22;20601;-77
2023/04/14 05:04:05;;;;;;;8.35;3.45;;;4.60;99.90;;;-144.05;64.36;56938.03;5071751;28;20100;-77
2023/04/14 05:06:36;;;;;;;10.77;2.90;;;4.70;99.90;;;-144.05;64.40;56967.78;5053174;28;20035;-75
2023/04/14 05:09:03;;;;;;;10.10;2.67;;;4.80;99.90;;;-144.05;64.04;56942.28;5052918;28;20043;-77
2023/04/14 05:11:30;;;;;;;6.55;2.95;;;4.90;99.90;;;-144.05;63.43;56946.53;5079616;28;20081;-76
2023/04/14 05:13:56;;;;;;;9.70;2.50;;;5.10;99.90;;;-144.05;62.82;56959.28;5092511;28;20399;-76
2023/04/14 05:16:22;;;;;;;8.70;3.83;;;5.20;99.90;;;-144.05;62.65;56967.78;5094968;28;20024;-78
2023/04/14 05:18:48;;;;;;;13.85;3.58;;;5.20;99.90;;;-144.05;62.47;56942.28;5092991;28;20034;-78
2023/04/14 05:21:14;;;;;;;10.13;3.15;;;5.30;99.90;;;-144.05;62.37;56929.53;5092974;28;20051;-75
2023/04/14 05:23:43;;;;;;;7.95;2.67;;;5.40;99.90;;;-144.05;61.92;56923.19;5092620;28;20029;-76
2023/04/14 05:26:11;;;;;;;5.57;2.55;;;5.40;99.90;;;-144.05;61.99;56931.66;5091716;28;20073;-76
2023/04/14 05:28:39;;;;;;;6.13;3.72;;;5.40;99.90;;;-144.05;62.24;56929.53;5074538;28;20032;-78
2023/04/14 05:31:05;;;;;;;7.32;3.00;;;5.40;99.90;;;-144.05;62.16;56916.81;5093072;28;20032;-76
2023/04/14 05:33:31;;;;;;;13.85;3.05;;;5.50;99.90;;;-144.05;61.60;56933.78;5094004;28;20044;-76
2023/04/14 05:35:57;;;;;;;11.20;2.90;;;5.50;99.90;;;-144.05;61.38;56929.53;5094633;28;20443;-76
2023/04/14 05:38:23;;;;;;;8.63;3.53;;;5.60;99.90;;;-144.05;61.13;56914.69;5076272;28;20031;-76
2023/04/14 05:40:50;;;;;;;9.60;3.30;;;5.60;99.90;;;-144.05;61.06;56929.53;5094131;28;20059;-76
2023/04/14 05:43:16;;;;;;;10.95;2.60;;;5.70;99.90;;;-144.05;61.16;56918.94;5094945;28;20403;-78
2023/04/14 05:45:42;;;;;;;10.68;2.83;;;5.70;99.90;;;-144.05;61.11;56933.78;5092013;28;20028;-76
2023/04/14 05:48:08;;;;;;;10.90;3.30;;;5.70;99.90;;;-144.05;61.09;56921.06;5093026;28;20077;-76
2023/04/14 05:50:36;;;;;;;5.43;2.58;;;5.90;99.90;;;-144.05;61.28;56931.66;5093122;28;20390;-76
2023/04/14 05:53:02;;;;;;;9.05;3.58;;;6.10;99.90;;;-144.05;61.00;56918.94;5093682;28;20533;-77
2023/04/14 05:55:28;;;;;;;8.60;3.05;;;6.20;99.90;;;-144.05;60.27;56925.28;5095737;28;20032;-76
2023/04/14 05:57:54;;;;;;;12.07;3.22;;;6.30;99.90;;;-144.05;58.21;56929.53;5096340;28;20441;-77
2023/04/14 06:00:22;;;;;;;12.52;2.90;;;6.50;99.90;;;-144.05;57.82;56923.19;5097646;28;20021;-76
2023/04/14 06:02:47;;;;;;;10.05;3.33;;;6.60;99.90;;;-144.05;56.70;56904.06;5078850;28;20422;-78
2023/04/14 06:05:13;;;;;;;13.45;2.88;;;6.70;99.90;;;-144.05;56.08;56942.28;5080044;28;20097;-76
2023/04/14 06:07:42;;;;;;;9.57;2.90;;;6.90;99.90;;;-144.05;55.87;56889.19;5097287;28;20024;-77
2023/04/14 06:10:09;;;;;;;8.63;3.25;;;7.10;99.90;;;-144.05;54.82;56908.31;5096885;28;20032;-76
2023/04/14 06:12:36;;;;;;;10.30;3.13;;;7.40;99.90;;;-144.05;53.31;56893.44;5079653;28;20399;-77
2023/04/14 06:15:06;;;;;;;10.25;3.05;;;7.70;99.90;;;-144.05;52.80;56914.69;5100960;28;20028;-76
2023/04/14 06:17:35;;;;;;;9.90;2.55;;;8.00;99.90;;;-144.05;51.44;56899.81;5092686;28;20058;-76
2023/04/14 06:20:01;;;;;;;5.28;2.38;;;8.30;99.90;;;-144.05;50.54;56904.06;5108173;28;20067;-77
2023/04/14 06:22:31;;;;;;;10.65;3.65;;;8.50;99.90;;;-144.05;50.20;56895.56;5109045;28;20016;-76
2023/04/14 06:24:57;;;;;;;8.90;2.58;;;8.80;99.90;;;-144.05;49.56;56908.31;5109724;28;20039;-78
2023/04/14 06:27:24;;;;;;;8.23;2.95;;;9.00;99.90;;;-144.05;48.87;56893.44;5096592;28;20031;-79
2023/04/14 06:29:51;;;;;;;13.20;3.20;;;9.30;99.90;;;-144.05;48.03;56895.56;5096150;28;20386;-76
2023/04/14 06:32:18;;;;;;;10.18;2.80;;;9.50;99.90;;;-144.05;47.52;56891.31;5096116;28;20035;-77
2023/04/14 06:34:47;;;;;;;8.88;2.80;;;9.90;99.90;;;-144.05;47.15;56882.81;5100747;28;20028;-76
2023/04/14 06:37:15;;;;;;;9.90;2.55;;;10.10;99.90;;;-144.05;46.29;56912.56;5086251;28;20221;-76
2023/04/14 06:39:41;;;;;;;11.43;2.83;;;10.40;99.90;;;-144.05;46.07;56914.69;5093936;28;20032;-77
2023/04/14 06:42:07;;;;;;;9.90;2.78;;;10.60;99.90;;;-144.05;45.92;56887.06;5093612;28;20024;-78
2023/04/14 06:44:32;;;;;;;8.73;2.25;;;10.80;99.90;;;-144.05;45.58;56897.69;5094038;28;20027;-77
2023/04/14 06:46:58;;;;;;;12.10;2.60;;;10.90;99.90;;;-144.05;45.23;56878.56;5094420;28;20035;-77
2023/04/14 06:49:24;;;;;;;8.23;2.40;;;11.00;99.90;;;-144.05;44.70;56906.19;5093289;28;20036;-76
2023/04/14 06:51:50;;;;;;;6.07;2.17;;;11.00;99.90;;;-144.05;44.85;56921.06;5093470;28;20035;-76
2023/04/14 06:54:16;;;;;;;8.02;2.50;;;11.00;99.90;;;-144.05;45.11;56897.69;5092177;28;20162;-76
2023/04/14 06:56:42;;;;;;;7.68;2.35;;;11.00;99.90;;;-144.05;45.09;56889.19;5092092;28;20119;-77
2023/04/14 06:59:08;;;;;;;5.60;2.47;;;11.10;99.90;;;-144.05;44.77;56891.31;5093338;28;20037;-76
2023/04/14 07:01:33;;;;;;;6.65;2.80;;;11.20;99.90;;;-144.05;43.92;56884.94;5074944;28;20032;-77
2023/04/14 07:04:02;;;;;;;8.85;2.83;;;11.30;99.90;;;-144.05;43.65;56882.81;5093297;28;20035;-77
2023/04/14 07:06:28;;;;;;;5.30;2.10;;;11.30;99.90;;;-144.05;43.26;56882.81;5074815;28;20024;-77
2023/04/14 07:08:55;;;;;;;9.93;2.10;;;11.40;99.90;;;-144.05;42.93;56889.19;5094077;28;20387;-76
2023/04/14 07:11:21;;;;;;;8.02;2.40;;;11.30;99.90;;;-144.05;42.79;56904.06;5074959;28;20126;-76
2023/04/14 07:13:46;;;;;;;8.10;2.88;;;11.50;99.90;;;-144.05;42.35;56897.69;5074797;28;20063;-77
2023/04/14 07:16:12;;;;;;;9.73;2.67;;;11.80;99.90;;;-144.05;41.89;56870.06;5092878;28;20034;-76
2023/04/14 07:18:38;;;;;;;9.15;2.88;;;12.10;99.90;;;-144.05;40.92;56904.06;5092998;28;20111;-76
2023/04/14 07:21:04;;;;;;;14.98;2.53;;;12.30;99.90;;;-144.05;40.52;56901.94;5074600;28;20028;-76
2023/04/14 07:23:32;;;;;;;7.47;3.10;;;12.40;99.90;;;-144.05;40.02;56880.69;5093041;28;20185;-77
2023/04/14 07:25:59;;;;;;;6.00;2.13;;;12.80;99.90;;;-144.05;39.56;56872.19;5093561;28;20496;-77
2023/04/14 07:28:27;;;;;;;8.38;2.75;;;13.10;99.90;;;-144.05;39.34;56880.69;5093948;28;20445;-77
2023/04/14 07:30:53;;;;;;;8.55;2.85;;;13.30;99.90;;;-144.05;39.08;56887.06;5094435;28;20032;-78
2023/04/14 07:33:21;;;;;;;7.25;2.88;;;13.30;99.90;;;-144.05;37.91;56880.69;5094839;28;20050;-77
2023/04/14 07:35:52;;;;;;;8.43;2.75;;;13.50;99.90;;;-144.05;37.76;56884.94;5077116;28;20063;-76
2023/04/14 07:38:19;;;;;;;10.00;2.10;;;13.60;99.90;;;-144.05;37.82;56897.69;5094830;28;20043;-77
2023/04/14 07:40:45;;;;;;;6.53;2.28;;;13.80;99.90;;;-144.05;37.20;56910.44;5093807;28;20043;-75
2023/04/14 07:43:11;;;;;;;11.02;2.88;;;13.80;99.90;;;-144.05;37.94;56891.31;5095451;28;20020;-75
2023/04/14 07:45:38;;;;;;;9.70;3.25;;;13.50;99.90;;;-144.05;37.47;56884.94;5076725;28;20032;-76
2023/04/14 07:48:05;;;;;;;10.63;2.92;;;13.50;99.90;;;-144.05;37.16;56897.69;5094514;28;20035;-76
2023/04/14 07:50:30;;;;;;;9.88;2.58;;;13.70;99.90;;;-144.05;36.64;56880.69;5095311;28;20036;-76
2023/04/14 07:52:58;;;;;;;10.15;2.58;;;14.00;99.90;;;-144.05;36.49;56882.81;5094872;28;20371;-77
2023/04/14 07:55:24;;;;;;;7.78;2.60;;;14.10;99.90;;;-144.05;36.21;56897.69;5095140;28;20395;-77
2023/04/14 07:57:50;;;;;;;7.70;2.53;;;14.20;99.90;;;-144.05;36.29;56887.06;5094654;28;20024;-75
2023/04/14 08:00:16;;;;;;;8.60;2.60;;;14.20;99.90;;;-144.05;36.02;56901.94;5093457;28;20051;-77
2023/04/14 08:02:42;;;;;;;10.50;2.67;;;14.50;99.90;;;-144.05;35.71;56893.44;5076513;28;20039;-77
2023/04/14 08:05:08;;;;;;;9.05;2.80;;;14.60;99.90;;;-144.05;35.16;56895.56;5077154;28;20062;-76
2023/04/14 08:07:34;;;;;;;9.07;2.88;;;14.90;99.90;;;-144.05;34.18;56893.44;5095192;28;20028;-75
2023/04/14 08:10:00;;;;;;;7.35;2.75;;;15.20;99.10;;;-144.05;33.88;56895.56;5093625;28;20027;-77
2023/04/14 08:12:26;;;;;;;6.32;2.22;;;15.40;98.50;;;-144.05;34.15;56895.56;5077295;28;20450;-78
2023/04/14 08:14:53;;;;;;;9.98;2.22;;;15.80;98.70;;;-144.05;33.21;56908.31;5094922;28;20024;-77
2023/04/14 08:17:19;;;;;;;7.50;2.20;;;16.00;96.40;;;-144.05;34.20;56916.81;5073901;28;20050;-76
2023/04/14 08:19:46;;;;;;;8.00;3.00;;;15.50;97.20;;;-144.05;34.72;56901.94;5093499;28;20032;-77
2023/04/14 08:22:12;;;;;;;8.57;2.60;;;15.10;97.10;;;-144.05;34.34;56891.31;5093072;28;20447;-77
2023/04/14 08:24:38;;;;;;;8.00;2.30;;;14.40;96.40;;;-144.05;35.85;56882.81;5094557;28;20040;-76
2023/04/14 08:27:03;;;;;;;7.38;2.40;;;14.40;99.80;;;-144.05;35.07;56882.81;5093244;28;20032;-77
2023/04/14 08:29:29;;;;;;;8.13;2.08;;;14.30;99.00;;;-144.05;34.76;56889.19;5093710;28;20024;-77
2023/04/14 08:31:55;;;;;;;9.75;2.88;;;14.80;99.10;;;-144.05;34.32;56889.19;5093644;28;20028;-76
2023/04/14 08:34:21;;;;;;;8.05;2.25;;;15.00;98.30;;;-144.05;33.03;56891.31;5094571;28;20031;-76
2023/04/14 08:36:47;;;;;;;9.32;2.60;;;15.50;95.30;;;-144.05;32.64;56893.44;5093273;28;20391;-77
2023/04/14 08:39:13;;;;;;;11.18;2.67;;;15.90;94.20;;;-144.05;32.51;56876.44;5092347;28;20036;-76
2023/04/14 08:41:40;;;;;;;9.20;2.67;;;15.80;93.10;;;-144.05;32.45;56887.06;5093732;28;20024;-75
2023/04/14 08:44:08;;;;;;;8.18;2.10;;;16.10;93.20;;;-144.05;32.04;56893.44;5093086;28;20024;-77
2023/04/14 08:46:35;;;;;;;10.60;2.78;;;16.20;92.00;;;-144.05;32.64;56891.31;5074547;28;20027;-77
2023/04/14 08:49:14;;;;;;;8.15;2.50;;;16.30;92.70;;;-144.05;31.86;56910.44;5091914;28;20372;-77
2023/04/14 08:51:44;;;;;;;9.30;2.13;;;16.40;91.20;;;-144.05;31.69;56923.19;5092855;28;20032;-76
2023/04/14 08:54:12;;;;;;;6.40;2.20;;;16.60;90.50;;;-144.05;31.23;56925.28;5093191;28;20040;-76
2023/04/14 08:56:42;;;;;;;8.07;2.05;;;16.60;89.80;;;-144.05;31.59;56910.44;5096433;28;20028;-76
2023/04/14 08:59:10;;;;;;;9.13;2.42;;;16.70;90.80;;;-144.05;31.37;56916.81;5107037;28;20062;-77
2023/04/14 09:01:38;;;;;;;9.98;2.58;;;16.90;89.50;;;-144.05;30.64;56925.28;5097624;28;20123;-78
2023/04/14 09:04:06;;;;;;;6.38;2.20;;;16.90;86.70;;;-144.05;30.73;56910.44;5079346;28;20028;-77
2023/04/14 09:06:33;;;;;;;6.78;2.03;;;16.90;85.30;;;-144.05;31.12;56923.19;5098765;28;20088;-77
2023/04/14 09:09:07;;;;;;;5.95;2.22;;;17.00;85.70;;;-144.05;30.91;56904.06;5081446;28;20123;-76
2023/04/14 09:11:35;;;;;;;8.35;1.67;;;17.10;84.50;;;-144.05;30.68;56904.06;5099162;28;20021;-77
2023/04/14 09:14:01;;;;;;;4.93;2.17;;;17.30;83.10;;;-144.05;30.60;56901.94;5101029;28;20031;-77
2023/04/14 09:16:30;;;;;;;6.78;1.88;;;17.10;83.40;;;-144.05;30.45;56912.56;5100037;28;20083;-77
2023/04/14 09:18:57;;;;;;;8.07;2.42;;;17.10;81.90;;;-144.05;29.73;56889.19;5100796;28;20194;-77
2023/04/14 09:21:26;;;;;;;10.75;2.28;;;16.80;77.30;;;-144.05;31.19;56906.19;5098114;28;20028;-77
2023/04/14 09:23:53;;;;;;;5.43;1.63;;;16.80;80.40;;;-144.05;30.56;56914.69;5096957;28;20024;-75
2023/04/14 09:26:19;;;;;;;5.93;2.28;;;16.80;79.00;;;-144.05;29.51;56895.56;5078945;28;20066;-75
2023/04/14 09:28:45;;;;;;;8.40;2.10;;;16.70;75.90;;;-144.05;29.39;56918.94;5093697;28;20029;-76
2023/04/14 09:31:11;;;;;;;7.93;2.28;;;17.20;76.90;;;-144.05;29.14;56923.19;5081673;28;20073;-76
2023/04/14 09:33:49;;;;;;;7.93;2.00;;;17.00;74.10;;;-144.05;30.06;56908.31;5082303;28;20067;-77
2023/04/14 09:36:22;;;;;;;6.38;1.80;;;16.60;77.10;;;-144.05;30.78;56912.56;5103785;28;20082;-77
2023/04/14 09:38:50;;;;;;;7.32;1.67;;;16.10;78.00;;;-144.05;31.91;56921.06;5100315;28;20058;-77
2023/04/14 09:41:22;;;;;;;7.70;2.17;;;15.70;81.20;;;-144.05;32.61;56889.19;5100028;28;20028;-76
2023/04/14 09:43:49;;;;;;;5.25;1.95;;;15.10;82.20;;;-144.05;33.51;56912.56;5081962;28;20115;-77
2023/04/14 09:46:15;;;;;;;9.05;1.90;;;14.60;85.00;;;-144.05;34.16;56906.19;5099563;28;20058;-77
2023/04/14 09:48:55;;;;;;;5.78;1.75;;;14.70;88.90;;;-144.05;32.74;56899.81;5099246;28;20028;-77
2023/04/14 09:51:27;;;;;;;11.27;2.40;;;14.50;84.30;;;-144.05;33.23;56925.28;5098921;28;20112;-77
2023/04/14 09:53:53;;;;;;;9.82;2.30;;;14.30;86.90;;;-144.05;33.56;56908.31;5097606;28;20031;-78
2023/04/14 09:56:26;;;;;;;4.65;1.98;;;14.40;86.90;;;-144.05;32.42;56901.94;5099200;28;20092;-77
2023/04/14 09:58:59;;;;;;;9.30;2.10;;;14.70;84.60;;;-144.05;31.74;56889.19;5080687;28;20573;-77
2023/04/14 10:01:31;;;;;;;8.25;1.98;;;15.40;82.10;;;-144.05;32.29;56925.28;5099227;28;20032;-75
2023/04/14 10:03:56;;;;;;;6.40;1.92;;;16.40;85.50;;;-144.05;31.53;56899.81;5079196;28;20035;-78
2023/04/14 10:06:25;;;;;;;7.10;2.35;;;16.80;79.30;;;-144.05;31.42;56904.06;5096972;28;20020;-77
2023/04/14 10:08:55;;;;;;;7.63;1.70;;;16.80;78.10;;;-144.05;30.94;56889.19;5080922;28;20475;-77
2023/04/14 10:11:36;;;;;;;7.80;1.70;;;16.80;76.30;;;-144.05;28.73;56914.69;5098708;28;20425;-78
2023/04/14 10:14:05;;;;;;;4.43;2.08;;;17.30;71.70;;;-144.05;30.19;56901.94;5096244;28;20036;-77
2023/04/14 10:16:32;;;;;;;6.65;1.80;;;17.20;75.00;;;-144.05;29.24;56910.44;5078039;28;20032;-78